sensor_id;sensor_type;location;lat;lon;timestamp;P1;durP1;ratioP1;P2;durP2;ratioP2
57071;SDS011;42956;51.366;11.298;2023-05-08T00:00:12;10.73;;;8.48;;
57071;SDS011;42956;51.366;11.298;2023-05-08T00:02:42;9.02;;;7.97;;
57071;SDS011;42956;51.366;11.298;2023-05-08T00:05:12;13.35;;;8.85;;
57071;SDS011;42956;51.366;11.298;2023-05-08T00:07:42;9.73;;;7.95;;
57071;SDS011;42956;51.366;11.298;2023-05-08T00:10:15;8.95;;;7.70;;
57071;SDS011;42956;51.366;11.298;2023-05-08T00:12:44;11.45;;;8.23;;
57071;SDS011;42956;51.366;11.298;2023-05-08T00:15:14;9.98;;;8.07;;
57071;SDS011;42956;51.366;11.298;2023-05-08T00:17:44;10.13;;;7.70;;
57071;SDS011;42956;51.366;11.298;2023-05-08T00:20:14;9.80;;;8.13;;
57071;SDS011;42956;51.366;11.298;2023-05-08T00:22:44;12.02;;;8.40;;
57071;SDS011;42956;51.366;11.298;2023-05-08T00:25:16;12.75;;;8.75;;
57071;SDS011;42956;51.366;11.298;2023-05-08T00:27:46;11.00;;;9.00;;
57071;SDS011;42956;51.366;11.298;2023-05-08T00:30:16;11.45;;;8.52;;
57071;SDS011;42956;51.366;11.298;2023-05-08T00:32:47;10.77;;;8.43;;
57071;SDS011;42956;51.366;11.298;2023-05-08T00:35:17;10.52;;;7.47;;
57071;SDS011;42956;51.366;11.298;2023-05-08T00:37:47;11.00;;;8.20;;
57071;SDS011;42956;51.366;11.298;2023-05-08T00:40:19;11.07;;;9.02;;
57071;SDS011;42956;51.366;11.298;2023-05-08T00:42:49;10.05;;;8.75;;
57071;SDS011;42956;51.366;11.298;2023-05-08T00:45:19;10.43;;;7.78;;
57071;SDS011;42956;51.366;11.298;2023-05-08T00:47:49;10.82;;;8.38;;
57071;SDS011;42956;51.366;11.298;2023-05-08T00:50:19;11.02;;;8.52;;
57071;SDS011;42956;51.366;11.298;2023-05-08T00:52:49;11.95;;;8.57;;
57071;SDS011;42956;51.366;11.298;2023-05-08T00:55:21;11.60;;;8.65;;
57071;SDS011;42956;51.366;11.298;2023-05-08T00:57:51;10.85;;;8.27;;
57071;SDS011;42956;51.366;11.298;2023-05-08T01:00:21;11.45;;;8.75;;
57071;SDS011;42956;51.366;11.298;2023-05-08T01:02:51;10.75;;;8.45;;
57071;SDS011;42956;51.366;11.298;2023-05-08T01:05:21;11.98;;;8.35;;
57071;SDS011;42956;51.366;11.298;2023-05-08T01:07:51;11.52;;;9.75;;
57071;SDS011;42956;51.366;11.298;2023-05-08T01:10:23;9.73;;;8.00;;
57071;SDS011;42956;51.366;11.298;2023-05-08T01:12:58;10.52;;;8.85;;
57071;SDS011;42956;51.366;11.298;2023-05-08T01:15:34;11.13;;;9.20;;
57071;SDS011;42956;51.366;11.298;2023-05-08T01:18:23;12.40;;;9.68;;
57071;SDS011;42956;51.366;11.298;2023-05-08T01:20:55;11.23;;;8.77;;
57071;SDS011;42956;51.366;11.298;2023-05-08T01:26:28;11.10;;;8.63;;
57071;SDS011;42956;51.366;11.298;2023-05-08T01:34:29;10.70;;;8.68;;
57071;SDS011;42956;51.366;11.298;2023-05-08T01:37:00;11.95;;;8.43;;
57071;SDS011;42956;51.366;11.298;2023-05-08T01:39:33;9.77;;;7.70;;
57071;SDS011;42956;51.366;11.298;2023-05-08T01:42:04;14.35;;;9.38;;
57071;SDS011;42956;51.366;11.298;2023-05-08T01:44:37;9.88;;;8.77;;
57071;SDS011;42956;51.366;11.298;2023-05-08T01:47:08;11.35;;;8.68;;
57071;SDS011;42956;51.366;11.298;2023-05-08T01:49:43;11.77;;;9.38;;
57071;SDS011;42956;51.366;11.298;2023-05-08T01:52:14;12.85;;;8.60;;
57071;SDS011;42956;51.366;11.298;2023-05-08T01:54:47;19.10;;;9.65;;
57071;SDS011;42956;51.366;11.298;2023-05-08T01:57:18;12.10;;;9.50;;
57071;SDS011;42956;51.366;11.298;2023-05-08T01:59:49;12.38;;;9.10;;
57071;SDS011;42956;51.366;11.298;2023-05-08T02:02:20;13.70;;;8.63;;
57071;SDS011;42956;51.366;11.298;2023-05-08T02:04:53;12.30;;;9.15;;
57071;SDS011;42956;51.366;11.298;2023-05-08T02:07:23;14.05;;;9.23;;
57071;SDS011;42956;51.366;11.298;2023-05-08T02:09:54;13.32;;;8.40;;
57071;SDS011;42956;51.366;11.298;2023-05-08T02:12:25;11.15;;;9.68;;
57071;SDS011;42956;51.366;11.298;2023-05-08T02:14:54;14.63;;;9.68;;
57071;SDS011;42956;51.366;11.298;2023-05-08T02:17:25;11.20;;;8.93;;
57071;SDS011;42956;51.366;11.298;2023-05-08T02:19:58;12.23;;;8.75;;
57071;SDS011;42956;51.366;11.298;2023-05-08T02:22:29;12.93;;;9.98;;
57071;SDS011;42956;51.366;11.298;2023-05-08T02:25:00;11.55;;;9.43;;
57071;SDS011;42956;51.366;11.298;2023-05-08T02:27:30;13.45;;;9.18;;
57071;SDS011;42956;51.366;11.298;2023-05-08T02:30:00;13.63;;;9.05;;
57071;SDS011;42956;51.366;11.298;2023-05-08T02:32:31;14.38;;;10.07;;
57071;SDS011;42956;51.366;11.298;2023-05-08T02:35:04;13.57;;;10.52;;
57071;SDS011;42956;51.366;11.298;2023-05-08T02:37:35;11.52;;;9.07;;
57071;SDS011;42956;51.366;11.298;2023-05-08T02:40:06;14.00;;;10.00;;
57071;SDS011;42956;51.366;11.298;2023-05-08T02:42:38;16.55;;;10.43;;
57071;SDS011;42956;51.366;11.298;2023-05-08T02:45:08;15.40;;;10.85;;
57071;SDS011;42956;51.366;11.298;2023-05-08T02:47:41;12.15;;;9.85;;
57071;SDS011;42956;51.366;11.298;2023-05-08T02:50:16;17.80;;;9.90;;
57071;SDS011;42956;51.366;11.298;2023-05-08T02:52:47;13.00;;;9.95;;
57071;SDS011;42956;51.366;11.298;2023-05-08T02:55:22;13.65;;;9.82;;
57071;SDS011;42956;51.366;11.298;2023-05-08T02:57:56;10.57;;;8.90;;
57071;SDS011;42956;51.366;11.298;2023-05-08T03:00:27;12.90;;;9.82;;
57071;SDS011;42956;51.366;11.298;2023-05-08T03:03:04;11.70;;;9.32;;
57071;SDS011;42956;51.366;11.298;2023-05-08T03:05:41;12.15;;;9.15;;
57071;SDS011;42956;51.366;11.298;2023-05-08T03:08:13;15.88;;;9.60;;
57071;SDS011;42956;51.366;11.298;2023-05-08T03:10:44;11.45;;;9.02;;
57071;SDS011;42956;51.366;11.298;2023-05-08T03:13:15;13.50;;;10.27;;
57071;SDS011;42956;51.366;11.298;2023-05-08T03:15:49;12.15;;;9.77;;
57071;SDS011;42956;51.366;11.298;2023-05-08T03:18:22;18.35;;;9.70;;
57071;SDS011;42956;51.366;11.298;2023-05-08T03:20:56;10.60;;;9.15;;
57071;SDS011;42956;51.366;11.298;2023-05-08T03:23:27;15.05;;;10.65;;
57071;SDS011;42956;51.366;11.298;2023-05-08T03:25:57;30.30;;;9.82;;
57071;SDS011;42956;51.366;11.298;2023-05-08T03:28:27;15.43;;;10.23;;
57071;SDS011;42956;51.366;11.298;2023-05-08T03:30:57;13.45;;;10.48;;
57071;SDS011;42956;51.366;11.298;2023-05-08T03:33:28;13.35;;;10.35;;
57071;SDS011;42956;51.366;11.298;2023-05-08T03:36:01;15.40;;;9.52;;
57071;SDS011;42956;51.366;11.298;2023-05-08T03:38:32;18.92;;;9.63;;
57071;SDS011;42956;51.366;11.298;2023-05-08T03:41:02;12.15;;;10.38;;
57071;SDS011;42956;51.366;11.298;2023-05-08T03:43:33;15.15;;;10.45;;
57071;SDS011;42956;51.366;11.298;2023-05-08T03:46:04;12.43;;;9.95;;
57071;SDS011;42956;51.366;11.298;2023-05-08T03:48:35;14.48;;;10.68;;
57071;SDS011;42956;51.366;11.298;2023-05-08T03:51:07;14.00;;;9.18;;
57071;SDS011;42956;51.366;11.298;2023-05-08T03:53:38;13.45;;;10.38;;
57071;SDS011;42956;51.366;11.298;2023-05-08T03:56:08;13.73;;;10.05;;
57071;SDS011;42956;51.366;11.298;2023-05-08T03:58:40;16.27;;;10.73;;
57071;SDS011;42956;51.366;11.298;2023-05-08T04:01:11;13.00;;;9.82;;
57071;SDS011;42956;51.366;11.298;2023-05-08T04:03:49;10.30;;;8.77;;
57071;SDS011;42956;51.366;11.298;2023-05-08T04:06:27;13.85;;;10.32;;
57071;SDS011;42956;51.366;11.298;2023-05-08T04:09:16;13.38;;;10.10;;
57071;SDS011;42956;51.366;11.298;2023-05-08T04:11:49;12.63;;;9.77;;
57071;SDS011;42956;51.366;11.298;2023-05-08T04:14:22;14.38;;;9.90;;
57071;SDS011;42956;51.366;11.298;2023-05-08T04:16:54;12.93;;;9.90;;
57071;SDS011;42956;51.366;11.298;2023-05-08T04:19:27;12.68;;;9.90;;
57071;SDS011;42956;51.366;11.298;2023-05-08T04:22:00;13.05;;;9.77;;
57071;SDS011;42956;51.366;11.298;2023-05-08T04:24:33;14.73;;;10.85;;
57071;SDS011;42956;51.366;11.298;2023-05-08T04:27:04;14.02;;;10.15;;
57071;SDS011;42956;51.366;11.298;2023-05-08T04:29:34;12.55;;;10.38;;
57071;SDS011;42956;51.366;11.298;2023-05-08T04:32:04;14.27;;;10.48;;
57071;SDS011;42956;51.366;11.298;2023-05-08T04:34:35;16.77;;;11.25;;
57071;SDS011;42956;51.366;11.298;2023-05-08T04:37:07;13.75;;;10.40;;
57071;SDS011;42956;51.366;11.298;2023-05-08T04:39:38;15.00;;;9.93;;
57071;SDS011;42956;51.366;11.298;2023-05-08T04:42:09;14.95;;;9.73;;
57071;SDS011;42956;51.366;11.298;2023-05-08T04:44:39;14.32;;;10.70;;
57071;SDS011;42956;51.366;11.298;2023-05-08T04:47:09;13.23;;;9.80;;
57071;SDS011;42956;51.366;11.298;2023-05-08T04:49:38;13.00;;;9.48;;
57071;SDS011;42956;51.366;11.298;2023-05-08T04:52:11;12.60;;;9.05;;
57071;SDS011;42956;51.366;11.298;2023-05-08T04:54:41;10.93;;;9.23;;
57071;SDS011;42956;51.366;11.298;2023-05-08T04:57:10;15.60;;;9.98;;
57071;SDS011;42956;51.366;11.298;2023-05-08T04:59:40;13.55;;;10.20;;
57071;SDS011;42956;51.366;11.298;2023-05-08T05:02:10;13.30;;;10.40;;
57071;SDS011;42956;51.366;11.298;2023-05-08T05:04:40;11.73;;;9.77;;
57071;SDS011;42956;51.366;11.298;2023-05-08T05:07:12;13.90;;;10.82;;
57071;SDS011;42956;51.366;11.298;2023-05-08T05:09:42;14.07;;;9.85;;
57071;SDS011;42956;51.366;11.298;2023-05-08T05:12:12;14.50;;;10.70;;
57071;SDS011;42956;51.366;11.298;2023-05-08T05:14:42;12.10;;;9.95;;
57071;SDS011;42956;51.366;11.298;2023-05-08T05:17:11;11.25;;;9.07;;
57071;SDS011;42956;51.366;11.298;2023-05-08T05:19:43;14.38;;;9.82;;
57071;SDS011;42956;51.366;11.298;2023-05-08T05:22:15;13.35;;;9.80;;
57071;SDS011;42956;51.366;11.298;2023-05-08T05:24:45;11.65;;;9.23;;
57071;SDS011;42956;51.366;11.298;2023-05-08T05:27:15;14.07;;;10.98;;
57071;SDS011;42956;51.366;11.298;2023-05-08T05:29:47;13.05;;;9.50;;
57071;SDS011;42956;51.366;11.298;2023-05-08T05:32:16;13.15;;;9.45;;
57071;SDS011;42956;51.366;11.298;2023-05-08T05:34:46;15.57;;;10.13;;
57071;SDS011;42956;51.366;11.298;2023-05-08T05:37:19;13.88;;;8.63;;
57071;SDS011;42956;51.366;11.298;2023-05-08T05:39:48;12.90;;;9.38;;
57071;SDS011;42956;51.366;11.298;2023-05-08T05:42:18;12.23;;;9.50;;
57071;SDS011;42956;51.366;11.298;2023-05-08T05:44:49;10.32;;;8.68;;
57071;SDS011;42956;51.366;11.298;2023-05-08T05:47:19;15.20;;;9.88;;
57071;SDS011;42956;51.366;11.298;2023-05-08T05:49:48;17.13;;;10.82;;
57071;SDS011;42956;51.366;11.298;2023-05-08T05:52:21;11.38;;;9.10;;
57071;SDS011;42956;51.366;11.298;2023-05-08T05:54:51;12.75;;;9.93;;
57071;SDS011;42956;51.366;11.298;2023-05-08T05:57:21;12.32;;;9.73;;
57071;SDS011;42956;51.366;11.298;2023-05-08T05:59:51;13.65;;;10.60;;
57071;SDS011;42956;51.366;11.298;2023-05-08T06:02:21;11.90;;;9.38;;
57071;SDS011;42956;51.366;11.298;2023-05-08T06:04:51;12.07;;;9.70;;
57071;SDS011;42956;51.366;11.298;2023-05-08T06:07:23;18.05;;;11.00;;
57071;SDS011;42956;51.366;11.298;2023-05-08T06:09:53;12.88;;;9.40;;
57071;SDS011;42956;51.366;11.298;2023-05-08T06:12:23;14.52;;;11.35;;
57071;SDS011;42956;51.366;11.298;2023-05-08T06:14:54;14.63;;;10.45;;
57071;SDS011;42956;51.366;11.298;2023-05-08T06:17:24;12.75;;;10.27;;
57071;SDS011;42956;51.366;11.298;2023-05-08T06:19:53;18.05;;;9.90;;
57071;SDS011;42956;51.366;11.298;2023-05-08T06:22:26;14.45;;;10.65;;
57071;SDS011;42956;51.366;11.298;2023-05-08T06:24:56;10.95;;;9.52;;
57071;SDS011;42956;51.366;11.298;2023-05-08T06:27:26;13.48;;;9.48;;
57071;SDS011;42956;51.366;11.298;2023-05-08T06:29:56;12.93;;;9.52;;
57071;SDS011;42956;51.366;11.298;2023-05-08T06:32:26;14.18;;;10.60;;
57071;SDS011;42956;51.366;11.298;2023-05-08T06:34:55;14.02;;;10.07;;
57071;SDS011;42956;51.366;11.298;2023-05-08T06:37:28;11.30;;;9.32;;
57071;SDS011;42956;51.366;11.298;2023-05-08T06:39:58;12.73;;;10.25;;
57071;SDS011;42956;51.366;11.298;2023-05-08T06:42:38;12.10;;;9.75;;
57071;SDS011;42956;51.366;11.298;2023-05-08T06:45:08;11.60;;;9.95;;
57071;SDS011;42956;51.366;11.298;2023-05-08T06:47:39;17.88;;;9.63;;
57071;SDS011;42956;51.366;11.298;2023-05-08T06:50:09;17.55;;;9.52;;
57071;SDS011;42956;51.366;11.298;2023-05-08T06:52:41;12.68;;;9.13;;
57071;SDS011;42956;51.366;11.298;2023-05-08T06:55:11;12.18;;;9.55;;
57071;SDS011;42956;51.366;11.298;2023-05-08T06:57:41;12.23;;;9.50;;
57071;SDS011;42956;51.366;11.298;2023-05-08T07:00:11;12.07;;;9.63;;
57071;SDS011;42956;51.366;11.298;2023-05-08T07:02:42;15.18;;;10.43;;
57071;SDS011;42956;51.366;11.298;2023-05-08T07:05:12;16.30;;;9.27;;
57071;SDS011;42956;51.366;11.298;2023-05-08T07:07:45;10.88;;;9.32;;
57071;SDS011;42956;51.366;11.298;2023-05-08T07:10:15;9.93;;;8.82;;
57071;SDS011;42956;51.366;11.298;2023-05-08T07:12:46;9.95;;;8.85;;
57071;SDS011;42956;51.366;11.298;2023-05-08T07:15:17;11.50;;;9.77;;
57071;SDS011;42956;51.366;11.298;2023-05-08T07:17:52;10.60;;;8.80;;
57071;SDS011;42956;51.366;11.298;2023-05-08T07:20:22;10.65;;;9.02;;
57071;SDS011;42956;51.366;11.298;2023-05-08T07:22:55;14.50;;;8.35;;
57071;SDS011;42956;51.366;11.298;2023-05-08T07:25:25;9.93;;;8.88;;
57071;SDS011;42956;51.366;11.298;2023-05-08T07:27:55;12.75;;;8.85;;
57071;SDS011;42956;51.366;11.298;2023-05-08T07:30:27;10.20;;;9.13;;
57071;SDS011;42956;51.366;11.298;2023-05-08T07:32:56;11.95;;;9.65;;
57071;SDS011;42956;51.366;11.298;2023-05-08T07:35:26;11.00;;;9.63;;
57071;SDS011;42956;51.366;11.298;2023-05-08T07:37:59;10.20;;;9.02;;
57071;SDS011;42956;51.366;11.298;2023-05-08T07:40:28;11.07;;;9.65;;
57071;SDS011;42956;51.366;11.298;2023-05-08T07:42:58;11.95;;;9.68;;
57071;SDS011;42956;51.366;11.298;2023-05-08T07:45:28;10.25;;;8.85;;
57071;SDS011;42956;51.366;11.298;2023-05-08T07:47:58;12.15;;;9.57;;
57071;SDS011;42956;51.366;11.298;2023-05-08T07:50:28;11.43;;;10.15;;
57071;SDS011;42956;51.366;11.298;2023-05-08T07:53:00;14.35;;;9.68;;
57071;SDS011;42956;51.366;11.298;2023-05-08T07:55:30;11.60;;;9.30;;
57071;SDS011;42956;51.366;11.298;2023-05-08T07:58:00;10.98;;;9.50;;
57071;SDS011;42956;51.366;11.298;2023-05-08T08:00:30;11.15;;;9.57;;
57071;SDS011;42956;51.366;11.298;2023-05-08T08:03:00;15.70;;;12.05;;
57071;SDS011;42956;51.366;11.298;2023-05-08T08:05:30;21.58;;;9.05;;
57071;SDS011;42956;51.366;11.298;2023-05-08T08:08:02;11.63;;;9.70;;
57071;SDS011;42956;51.366;11.298;2023-05-08T08:10:32;12.20;;;9.43;;
57071;SDS011;42956;51.366;11.298;2023-05-08T08:13:02;13.68;;;10.20;;
57071;SDS011;42956;51.366;11.298;2023-05-08T08:15:32;15.63;;;10.93;;
57071;SDS011;42956;51.366;11.298;2023-05-08T08:18:02;11.32;;;9.80;;
57071;SDS011;42956;51.366;11.298;2023-05-08T08:20:32;13.77;;;10.07;;
57071;SDS011;42956;51.366;11.298;2023-05-08T08:23:04;14.50;;;10.32;;
57071;SDS011;42956;51.366;11.298;2023-05-08T08:25:35;13.98;;;9.55;;
57071;SDS011;42956;51.366;11.298;2023-05-08T08:28:04;12.63;;;10.80;;
57071;SDS011;42956;51.366;11.298;2023-05-08T08:30:34;11.50;;;9.48;;
57071;SDS011;42956;51.366;11.298;2023-05-08T08:33:05;15.05;;;10.80;;
57071;SDS011;42956;51.366;11.298;2023-05-08T08:35:34;12.40;;;9.40;;
57071;SDS011;42956;51.366;11.298;2023-05-08T08:38:07;11.35;;;9.25;;
57071;SDS011;42956;51.366;11.298;2023-05-08T08:40:38;13.90;;;9.68;;
57071;SDS011;42956;51.366;11.298;2023-05-08T08:43:07;11.65;;;10.27;;
57071;SDS011;42956;51.366;11.298;2023-05-08T08:45:37;10.35;;;9.27;;
57071;SDS011;42956;51.366;11.298;2023-05-08T08:48:08;16.40;;;10.82;;
57071;SDS011;42956;51.366;11.298;2023-05-08T08:50:40;11.30;;;10.10;;
57071;SDS011;42956;51.366;11.298;2023-05-08T08:53:14;11.52;;;10.10;;
57071;SDS011;42956;51.366;11.298;2023-05-08T08:55:46;10.35;;;8.75;;
57071;SDS011;42956;51.366;11.298;2023-05-08T08:58:19;13.15;;;10.73;;
57071;SDS011;42956;51.366;11.298;2023-05-08T09:00:50;11.35;;;10.15;;
57071;SDS011;42956;51.366;11.298;2023-05-08T09:03:20;14.15;;;11.27;;
57071;SDS011;42956;51.366;11.298;2023-05-08T09:05:50;12.45;;;9.90;;
57071;SDS011;42956;51.366;11.298;2023-05-08T09:08:23;12.25;;;10.15;;
57071;SDS011;42956;51.366;11.298;2023-05-08T09:10:54;13.50;;;9.93;;
57071;SDS011;42956;51.366;11.298;2023-05-08T09:13:24;14.30;;;11.30;;
57071;SDS011;42956;51.366;11.298;2023-05-08T09:15:54;13.38;;;10.52;;
57071;SDS011;42956;51.366;11.298;2023-05-08T09:18:24;11.68;;;9.70;;
57071;SDS011;42956;51.366;11.298;2023-05-08T09:20:54;11.48;;;10.23;;
57071;SDS011;42956;51.366;11.298;2023-05-08T09:23:26;10.85;;;9.25;;
57071;SDS011;42956;51.366;11.298;2023-05-08T09:25:56;10.38;;;9.38;;
57071;SDS011;42956;51.366;11.298;2023-05-08T09:28:26;11.98;;;9.63;;
57071;SDS011;42956;51.366;11.298;2023-05-08T09:33:58;12.13;;;10.27;;
57071;SDS011;42956;51.366;11.298;2023-05-08T09:36:28;11.25;;;9.07;;
57071;SDS011;42956;51.366;11.298;2023-05-08T09:39:00;14.73;;;9.90;;
57071;SDS011;42956;51.366;11.298;2023-05-08T09:41:30;11.68;;;10.48;;
57071;SDS011;42956;51.366;11.298;2023-05-08T09:44:00;12.43;;;10.18;;
57071;SDS011;42956;51.366;11.298;2023-05-08T09:46:31;13.15;;;11.57;;
57071;SDS011;42956;51.366;11.298;2023-05-08T09:49:02;11.95;;;10.48;;
57071;SDS011;42956;51.366;11.298;2023-05-08T09:51:32;12.20;;;10.80;;
57071;SDS011;42956;51.366;11.298;2023-05-08T09:54:04;14.73;;;9.73;;
57071;SDS011;42956;51.366;11.298;2023-05-08T09:56:45;12.15;;;10.77;;
57071;SDS011;42956;51.366;11.298;2023-05-08T09:59:22;12.52;;;10.88;;
57071;SDS011;42956;51.366;11.298;2023-05-08T10:01:53;12.20;;;9.98;;
57071;SDS011;42956;51.366;11.298;2023-05-08T10:04:32;13.35;;;9.80;;
57071;SDS011;42956;51.366;11.298;2023-05-08T10:07:03;12.18;;;10.90;;
57071;SDS011;42956;51.366;11.298;2023-05-08T10:09:35;10.77;;;9.75;;
57071;SDS011;42956;51.366;11.298;2023-05-08T10:12:16;11.18;;;9.48;;
57071;SDS011;42956;51.366;11.298;2023-05-08T10:14:47;12.00;;;10.00;;
57071;SDS011;42956;51.366;11.298;2023-05-08T10:17:18;12.77;;;10.27;;
57071;SDS011;42956;51.366;11.298;2023-05-08T10:19:49;12.23;;;9.90;;
57071;SDS011;42956;51.366;11.298;2023-05-08T10:22:21;12.95;;;10.70;;
57071;SDS011;42956;51.366;11.298;2023-05-08T10:24:56;10.55;;;9.45;;
57071;SDS011;42956;51.366;11.298;2023-05-08T10:27:33;12.50;;;8.35;;
57071;SDS011;42956;51.366;11.298;2023-05-08T10:30:04;10.75;;;9.13;;
57071;SDS011;42956;51.366;11.298;2023-05-08T10:32:36;13.90;;;9.30;;
57071;SDS011;42956;51.366;11.298;2023-05-08T10:35:07;9.95;;;8.90;;
57071;SDS011;42956;51.366;11.298;2023-05-08T10:37:38;12.30;;;11.07;;
57071;SDS011;42956;51.366;11.298;2023-05-08T10:40:11;16.02;;;10.68;;
57071;SDS011;42956;51.366;11.298;2023-05-08T10:42:42;13.02;;;10.85;;
57071;SDS011;42956;51.366;11.298;2023-05-08T10:45:12;11.43;;;10.32;;
57071;SDS011;42956;51.366;11.298;2023-05-08T10:47:44;11.57;;;9.52;;
57071;SDS011;42956;51.366;11.298;2023-05-08T10:50:30;13.52;;;10.45;;
57071;SDS011;42956;51.366;11.298;2023-05-08T10:53:04;12.00;;;10.45;;
57071;SDS011;42956;51.366;11.298;2023-05-08T10:55:38;11.82;;;10.40;;
57071;SDS011;42956;51.366;11.298;2023-05-08T10:58:11;14.23;;;10.65;;
57071;SDS011;42956;51.366;11.298;2023-05-08T11:03:26;12.70;;;10.15;;
57071;SDS011;42956;51.366;11.298;2023-05-08T11:05:59;14.30;;;9.45;;
57071;SDS011;42956;51.366;11.298;2023-05-08T11:08:29;11.20;;;10.10;;
57071;SDS011;42956;51.366;11.298;2023-05-08T11:11:04;13.38;;;9.90;;
57071;SDS011;42956;51.366;11.298;2023-05-08T11:13:34;11.63;;;9.30;;
57071;SDS011;42956;51.366;11.298;2023-05-08T11:16:05;11.23;;;9.65;;
57071;SDS011;42956;51.366;11.298;2023-05-08T11:18:36;9.55;;;8.52;;
57071;SDS011;42956;51.366;11.298;2023-05-08T11:27:39;11.90;;;9.57;;
57071;SDS011;42956;51.366;11.298;2023-05-08T11:30:22;9.75;;;8.73;;
57071;SDS011;42956;51.366;11.298;2023-05-08T11:38:13;10.98;;;9.25;;
57071;SDS011;42956;51.366;11.298;2023-05-08T11:40:43;15.00;;;9.55;;
57071;SDS011;42956;51.366;11.298;2023-05-08T11:46:01;11.73;;;9.05;;
57071;SDS011;42956;51.366;11.298;2023-05-08T11:48:34;8.15;;;7.22;;
57071;SDS011;42956;51.366;11.298;2023-05-08T11:51:04;7.95;;;7.15;;
57071;SDS011;42956;51.366;11.298;2023-05-08T11:53:34;8.20;;;6.93;;
57071;SDS011;42956;51.366;11.298;2023-05-08T11:56:04;7.13;;;6.00;;
57071;SDS011;42956;51.366;11.298;2023-05-08T11:58:35;7.55;;;6.57;;
57071;SDS011;42956;51.366;11.298;2023-05-08T12:01:07;8.80;;;6.35;;
57071;SDS011;42956;51.366;11.298;2023-05-08T12:03:37;8.75;;;6.88;;
57071;SDS011;42956;51.366;11.298;2023-05-08T12:06:07;7.75;;;6.13;;
57071;SDS011;42956;51.366;11.298;2023-05-08T12:08:37;7.40;;;6.68;;
57071;SDS011;42956;51.366;11.298;2023-05-08T12:11:07;7.80;;;7.03;;
57071;SDS011;42956;51.366;11.298;2023-05-08T12:13:37;7.05;;;5.97;;
57071;SDS011;42956;51.366;11.298;2023-05-08T12:16:09;7.15;;;5.78;;
57071;SDS011;42956;51.366;11.298;2023-05-08T12:18:39;7.95;;;7.15;;
57071;SDS011;42956;51.366;11.298;2023-05-08T12:21:10;6.03;;;5.43;;
57071;SDS011;42956;51.366;11.298;2023-05-08T12:23:40;6.90;;;6.03;;
57071;SDS011;42956;51.366;11.298;2023-05-08T12:26:11;7.25;;;6.20;;
57071;SDS011;42956;51.366;11.298;2023-05-08T12:28:43;8.73;;;6.47;;
57071;SDS011;42956;51.366;11.298;2023-05-08T12:31:15;12.45;;;5.80;;
57071;SDS011;42956;51.366;11.298;2023-05-08T12:33:45;6.22;;;5.63;;
57071;SDS011;42956;51.366;11.298;2023-05-08T12:36:16;8.10;;;5.88;;
57071;SDS011;42956;51.366;11.298;2023-05-08T12:38:45;9.07;;;6.65;;
57071;SDS011;42956;51.366;11.298;2023-05-08T12:41:21;6.03;;;5.47;;
57071;SDS011;42956;51.366;11.298;2023-05-08T12:43:52;6.07;;;5.47;;
57071;SDS011;42956;51.366;11.298;2023-05-08T12:46:25;12.40;;;4.90;;
57071;SDS011;42956;51.366;11.298;2023-05-08T12:48:59;6.80;;;5.40;;
57071;SDS011;42956;51.366;11.298;2023-05-08T12:51:30;5.97;;;5.10;;
57071;SDS011;42956;51.366;11.298;2023-05-08T12:54:00;6.25;;;4.80;;
57071;SDS011;42956;51.366;11.298;2023-05-08T12:56:30;9.35;;;4.70;;
57071;SDS011;42956;51.366;11.298;2023-05-08T12:59:00;6.40;;;5.10;;
57071;SDS011;42956;51.366;11.298;2023-05-08T13:01:32;6.85;;;4.30;;
57071;SDS011;42956;51.366;11.298;2023-05-08T13:04:05;9.55;;;5.60;;
57071;SDS011;42956;51.366;11.298;2023-05-08T13:06:36;6.88;;;4.82;;
57071;SDS011;42956;51.366;11.298;2023-05-08T13:09:06;7.38;;;4.53;;
57071;SDS011;42956;51.366;11.298;2023-05-08T13:11:35;7.97;;;5.07;;
57071;SDS011;42956;51.366;11.298;2023-05-08T13:14:05;4.00;;;3.60;;
57071;SDS011;42956;51.366;11.298;2023-05-08T13:16:44;5.93;;;3.92;;
57071;SDS011;42956;51.366;11.298;2023-05-08T13:19:14;3.67;;;3.15;;
57071;SDS011;42956;51.366;11.298;2023-05-08T13:21:44;12.00;;;3.47;;
57071;SDS011;42956;51.366;11.298;2023-05-08T13:24:15;5.53;;;2.58;;
57071;SDS011;42956;51.366;11.298;2023-05-08T13:26:45;10.15;;;2.97;;
57071;SDS011;42956;51.366;11.298;2023-05-08T13:29:14;4.28;;;3.17;;
57071;SDS011;42956;51.366;11.298;2023-05-08T13:31:47;5.13;;;3.63;;
57071;SDS011;42956;51.366;11.298;2023-05-08T13:34:17;5.95;;;3.97;;
57071;SDS011;42956;51.366;11.298;2023-05-08T13:36:48;6.05;;;3.00;;
57071;SDS011;42956;51.366;11.298;2023-05-08T13:39:17;4.70;;;2.72;;
57071;SDS011;42956;51.366;11.298;2023-05-08T13:41:47;3.95;;;2.88;;
57071;SDS011;42956;51.366;11.298;2023-05-08T13:44:17;5.60;;;3.30;;
57071;SDS011;42956;51.366;11.298;2023-05-08T13:46:50;4.95;;;3.47;;
57071;SDS011;42956;51.366;11.298;2023-05-08T13:49:20;3.20;;;2.50;;
57071;SDS011;42956;51.366;11.298;2023-05-08T13:51:50;4.63;;;2.83;;
57071;SDS011;42956;51.366;11.298;2023-05-08T13:56:52;6.57;;;2.38;;
57071;SDS011;42956;51.366;11.298;2023-05-08T13:59:22;3.63;;;2.97;;
57071;SDS011;42956;51.366;11.298;2023-05-08T14:01:54;8.20;;;3.05;;
57071;SDS011;42956;51.366;11.298;2023-05-08T14:04:24;7.13;;;2.83;;
57071;SDS011;42956;51.366;11.298;2023-05-08T14:06:54;3.00;;;2.42;;
57071;SDS011;42956;51.366;11.298;2023-05-08T14:09:23;7.50;;;3.25;;
57071;SDS011;42956;51.366;11.298;2023-05-08T14:11:53;6.38;;;3.03;;
57071;SDS011;42956;51.366;11.298;2023-05-08T14:14:23;5.75;;;3.40;;
57071;SDS011;42956;51.366;11.298;2023-05-08T14:16:56;4.78;;;2.90;;
57071;SDS011;42956;51.366;11.298;2023-05-08T14:19:25;3.97;;;2.72;;
57071;SDS011;42956;51.366;11.298;2023-05-08T14:21:55;3.90;;;3.28;;
57071;SDS011;42956;51.366;11.298;2023-05-08T14:24:25;5.35;;;3.65;;
57071;SDS011;42956;51.366;11.298;2023-05-08T14:26:55;4.85;;;2.83;;
57071;SDS011;42956;51.366;11.298;2023-05-08T14:29:25;3.17;;;2.70;;
57071;SDS011;42956;51.366;11.298;2023-05-08T14:31:57;3.45;;;3.05;;
57071;SDS011;42956;51.366;11.298;2023-05-08T14:34:27;5.63;;;2.95;;
57071;SDS011;42956;51.366;11.298;2023-05-08T14:36:57;3.33;;;2.50;;
57071;SDS011;42956;51.366;11.298;2023-05-08T14:39:28;2.95;;;2.30;;
57071;SDS011;42956;51.366;11.298;2023-05-08T14:41:59;2.90;;;2.53;;
57071;SDS011;42956;51.366;11.298;2023-05-08T14:44:32;4.45;;;2.38;;
57071;SDS011;42956;51.366;11.298;2023-05-08T14:47:05;10.60;;;2.63;;
57071;SDS011;42956;51.366;11.298;2023-05-08T14:49:35;3.88;;;2.72;;
57071;SDS011;42956;51.366;11.298;2023-05-08T14:52:05;3.22;;;2.10;;
57071;SDS011;42956;51.366;11.298;2023-05-08T14:54:34;7.50;;;2.75;;
57071;SDS011;42956;51.366;11.298;2023-05-08T14:57:05;3.33;;;2.38;;
57071;SDS011;42956;51.366;11.298;2023-05-08T14:59:34;4.75;;;2.40;;
57071;SDS011;42956;51.366;11.298;2023-05-08T15:02:27;4.75;;;2.83;;
57071;SDS011;42956;51.366;11.298;2023-05-08T15:04:57;5.22;;;2.60;;
57071;SDS011;42956;51.366;11.298;2023-05-08T15:07:33;3.88;;;2.47;;
57071;SDS011;42956;51.366;11.298;2023-05-08T15:10:07;3.72;;;2.25;;
57071;SDS011;42956;51.366;11.298;2023-05-08T15:12:37;4.20;;;2.17;;
57071;SDS011;42956;51.366;11.298;2023-05-08T15:15:07;7.45;;;2.20;;